createdAt,value
2023-03-17T00:00:16.158Z,8.60
2023-03-17T00:02:45.744Z,8.60
2023-03-17T00:05:23.117Z,8.50
2023-03-17T00:07:51.053Z,8.50
2023-03-17T00:10:19.609Z,8.40
2023-03-17T00:12:46.486Z,8.50
2023-03-17T00:15:14.871Z,8.40
2023-03-17T00:17:42.398Z,8.40
2023-03-17T00:20:13.430Z,8.40
2023-03-17T00:22:40.077Z,8.40
2023-03-17T00:25:17.393Z,8.40
2023-03-17T00:27:44.077Z,8.40
2023-03-17T00:30:13.489Z,8.40
2023-03-17T00:32:40.615Z,8.40
2023-03-17T00:35:15.913Z,8.30
2023-03-17T00:37:42.705Z,8.30
2023-03-17T00:40:14.577Z,8.30
2023-03-17T00:42:41.768Z,8.30
2023-03-17T00:45:08.584Z,8.20
2023-03-17T00:47:35.413Z,8.20
2023-03-17T00:50:01.964Z,8.20
2023-03-17T00:52:28.726Z,8.20
2023-03-17T00:54:55.313Z,8.30
2023-03-17T00:57:22.672Z,8.20
2023-03-17T00:59:49.466Z,8.30
2023-03-17T01:02:16.367Z,8.30
2023-03-17T01:04:49.961Z,8.30
2023-03-17T01:07:19.833Z,8.40
2023-03-17T01:09:46.491Z,8.40
2023-03-17T01:12:14.067Z,8.40
2023-03-17T01:14:40.945Z,8.40
2023-03-17T01:17:15.271Z,8.30
2023-03-17T01:19:42.470Z,8.30
2023-03-17T01:22:09.784Z,8.30
2023-03-17T01:24:37.371Z,8.30
2023-03-17T01:27:04.945Z,8.30
2023-03-17T01:29:31.634Z,8.30
2023-03-17T01:31:58.318Z,8.30
2023-03-17T01:34:25.199Z,8.20
2023-03-17T01:36:51.892Z,8.20
2023-03-17T01:39:19.611Z,8.20
2023-03-17T01:41:47.069Z,8.10
2023-03-17T01:44:18.278Z,8.10
2023-03-17T01:46:45.958Z,8.10
2023-03-17T01:49:38.885Z,8.00
2023-03-17T01:52:09.783Z,8.00
2023-03-17T01:54:45.058Z,7.90
2023-03-17T01:57:16.125Z,7.90
2023-03-17T01:59:45.588Z,8.00
2023-03-17T02:02:14.752Z,7.90
2023-03-17T02:04:41.762Z,7.90
2023-03-17T02:07:10.125Z,7.90
2023-03-17T02:09:36.995Z,7.90
2023-03-17T02:12:03.977Z,7.90
2023-03-17T02:14:30.653Z,7.90
2023-03-17T02:16:57.672Z,7.90
2023-03-17T02:19:24.500Z,7.90
2023-03-17T02:21:55.661Z,7.90
2023-03-17T02:24:30.798Z,7.90
2023-03-17T02:27:00.303Z,7.90
2023-03-17T02:29:27.714Z,7.80
2023-03-17T02:34:23.406Z,7.70
2023-03-17T02:36:50.152Z,7.70
2023-03-17T02:39:16.831Z,7.60
2023-03-17T02:41:43.911Z,7.50
2023-03-17T02:44:10.977Z,7.50
2023-03-17T02:46:37.537Z,7.50
2023-03-17T02:49:04.755Z,7.40
2023-03-17T02:51:31.630Z,7.50
2023-03-17T02:53:58.492Z,7.50
2023-03-17T02:56:25.291Z,7.60
2023-03-17T02:58:52.507Z,7.60
2023-03-17T03:01:19.145Z,7.70
2023-03-17T03:03:45.949Z,7.80
2023-03-17T03:06:12.859Z,7.70
2023-03-17T03:08:39.513Z,7.80
2023-03-17T03:11:06.262Z,7.70
2023-03-17T03:13:32.904Z,7.60
2023-03-17T03:16:00.299Z,7.60
2023-03-17T03:18:27.156Z,7.70
2023-03-17T03:20:54.058Z,7.60
2023-03-17T03:23:20.838Z,7.60
2023-03-17T03:25:47.702Z,7.50
2023-03-17T03:28:14.458Z,7.50
2023-03-17T03:30:41.679Z,7.50
2023-03-17T03:33:12.850Z,7.50
2023-03-17T03:35:40.151Z,7.50
2023-03-17T03:38:07.338Z,7.40
2023-03-17T03:40:34.482Z,7.50
2023-03-17T03:43:07.509Z,7.40
2023-03-17T03:45:39.775Z,7.40
2023-03-17T03:48:06.661Z,7.40
2023-03-17T03:50:33.484Z,7.40
2023-03-17T03:53:00.324Z,7.30
2023-03-17T03:55:27.027Z,7.30
2023-03-17T03:57:53.692Z,7.30
2023-03-17T04:00:20.619Z,7.20
2023-03-17T04:02:47.397Z,7.20
2023-03-17T04:05:15.362Z,7.20
2023-03-17T04:07:43.117Z,7.20
2023-03-17T04:10:10.937Z,7.30
2023-03-17T04:12:37.964Z,7.20
2023-03-17T04:15:05.671Z,7.20
2023-03-17T04:17:32.383Z,7.20
2023-03-17T04:19:58.964Z,7.20
2023-03-17T04:22:25.653Z,7.20
2023-03-17T04:24:52.344Z,7.10
2023-03-17T04:27:19.306Z,7.10
2023-03-17T04:29:46.049Z,7.00
2023-03-17T04:32:13.452Z,7.00
2023-03-17T04:34:40.392Z,7.10
2023-03-17T04:37:07.966Z,7.10
2023-03-17T04:39:34.743Z,7.10
2023-03-17T04:42:01.428Z,7.10
2023-03-17T04:44:28.101Z,7.00
2023-03-17T04:46:54.888Z,7.00
2023-03-17T04:49:21.846Z,7.00
2023-03-17T04:51:48.391Z,7.00
2023-03-17T04:54:16.392Z,7.10
2023-03-17T04:56:43.102Z,7.10
2023-03-17T04:59:09.756Z,7.20
2023-03-17T05:01:39.078Z,7.20
2023-03-17T05:04:06.738Z,7.20
2023-03-17T05:06:33.541Z,7.30
2023-03-17T05:09:00.389Z,7.30
2023-03-17T05:11:27.080Z,7.30
2023-03-17T05:13:53.831Z,7.40
2023-03-17T05:16:20.785Z,7.40
2023-03-17T05:18:47.812Z,7.40
2023-03-17T05:21:14.406Z,7.40
2023-03-17T05:23:41.805Z,7.40
2023-03-17T05:26:08.461Z,7.40
2023-03-17T05:28:35.243Z,7.40
2023-03-17T05:31:02.519Z,7.40
2023-03-17T05:33:29.258Z,7.50
2023-03-17T05:35:56.207Z,7.50
2023-03-17T05:38:23.077Z,7.50
2023-03-17T05:40:51.233Z,7.50
2023-03-17T05:43:18.167Z,7.60
2023-03-17T05:45:45.418Z,7.60
2023-03-17T05:48:13.158Z,7.60
2023-03-17T05:50:41.667Z,7.50
2023-03-17T05:53:08.739Z,7.50
2023-03-17T05:55:35.575Z,7.70
2023-03-17T05:58:04.618Z,7.70
2023-03-17T06:00:31.795Z,7.70
2023-03-17T06:02:58.895Z,7.70
2023-03-17T06:05:25.821Z,7.70
2023-03-17T06:07:56.238Z,7.80
2023-03-17T06:10:24.233Z,7.70
2023-03-17T06:12:51.455Z,7.80
2023-03-17T06:15:18.987Z,7.90
2023-03-17T06:17:45.943Z,7.90
2023-03-17T06:20:13.094Z,7.90
2023-03-17T06:22:51.704Z,7.90
2023-03-17T06:25:26.923Z,8.00
2023-03-17T06:27:54.913Z,8.00
2023-03-17T06:30:22.485Z,8.10
2023-03-17T06:32:55.911Z,8.20
2023-03-17T06:35:23.335Z,8.20
2023-03-17T06:37:50.183Z,8.20
2023-03-17T06:40:17.120Z,8.20
2023-03-17T06:42:44.028Z,8.20
2023-03-17T06:45:11.115Z,8.30
2023-03-17T06:47:38.174Z,8.40
2023-03-17T06:50:05.458Z,8.40
2023-03-17T06:52:32.246Z,8.40
2023-03-17T06:54:58.915Z,8.50
2023-03-17T06:57:26.163Z,8.60
2023-03-17T06:59:53.055Z,8.60
2023-03-17T07:02:20.161Z,8.70
2023-03-17T07:04:46.856Z,8.80
2023-03-17T07:07:13.749Z,8.80
2023-03-17T07:09:40.788Z,8.90
2023-03-17T07:12:07.605Z,9.00
2023-03-17T07:14:35.697Z,9.00
2023-03-17T07:17:03.702Z,9.10
2023-03-17T07:19:31.280Z,9.10
2023-03-17T07:21:58.031Z,9.20
2023-03-17T07:24:25.683Z,9.20
2023-03-17T07:26:52.802Z,9.20
2023-03-17T07:29:19.683Z,9.30
2023-03-17T07:31:47.282Z,9.30
2023-03-17T07:34:14.080Z,9.40
2023-03-17T07:36:41.412Z,9.50
2023-03-17T07:39:10.754Z,9.60
2023-03-17T07:41:38.521Z,9.60
2023-03-17T07:44:05.400Z,9.70
2023-03-17T07:46:32.460Z,9.70
2023-03-17T07:48:59.195Z,9.80
2023-03-17T07:51:27.757Z,9.80
2023-03-17T07:54:03.061Z,9.90
2023-03-17T07:56:31.096Z,9.90
2023-03-17T07:58:59.081Z,9.90
2023-03-17T08:01:26.531Z,10.10
2023-03-17T08:03:53.285Z,10.00
2023-03-17T08:06:20.296Z,10.00
2023-03-17T08:08:47.433Z,10.10
2023-03-17T08:11:14.336Z,10.10
2023-03-17T08:13:41.032Z,10.20
2023-03-17T08:16:08.161Z,10.20
2023-03-17T08:18:35.336Z,10.30
2023-03-17T08:21:02.275Z,10.30
2023-03-17T08:23:28.991Z,10.40
2023-03-17T08:25:59.517Z,10.60
2023-03-17T08:28:27.086Z,10.60
2023-03-17T08:30:54.475Z,10.80
2023-03-17T08:33:21.540Z,10.90
2023-03-17T08:35:48.200Z,10.80
2023-03-17T08:38:17.141Z,11.00
2023-03-17T08:40:43.793Z,11.10
2023-03-17T08:43:10.718Z,11.10
2023-03-17T08:45:38.763Z,11.20
2023-03-17T08:48:05.341Z,11.30
2023-03-17T08:50:32.352Z,11.30
2023-03-17T08:52:59.381Z,11.40
2023-03-17T08:55:26.376Z,11.60
2023-03-17T08:57:53.408Z,11.80
2023-03-17T09:00:20.943Z,12.10
2023-03-17T09:02:48.353Z,12.20
2023-03-17T09:05:15.612Z,12.40
2023-03-17T09:07:42.390Z,12.60
2023-03-17T09:10:09.670Z,12.80
2023-03-17T09:12:37.467Z,13.40
2023-03-17T09:15:05.285Z,13.80
2023-03-17T09:17:32.024Z,14.50
2023-03-17T09:19:59.696Z,14.90
2023-03-17T09:22:26.340Z,15.10
2023-03-17T09:24:53.325Z,14.90
2023-03-17T09:27:19.930Z,14.70
2023-03-17T09:29:46.797Z,15.00
2023-03-17T09:32:13.770Z,15.30
2023-03-17T09:34:40.512Z,15.90
2023-03-17T09:37:07.134Z,16.00
2023-03-17T09:39:34.166Z,15.90
2023-03-17T09:42:06.737Z,15.50
2023-03-17T09:44:45.910Z,15.00
2023-03-17T09:47:26.200Z,15.20
2023-03-17T09:49:56.102Z,15.60
2023-03-17T09:52:27.206Z,16.00
2023-03-17T09:54:54.030Z,15.70
2023-03-17T09:57:35.475Z,15.60
2023-03-17T10:00:14.640Z,15.60
2023-03-17T10:02:41.927Z,15.40
2023-03-17T10:05:19.504Z,15.60
2023-03-17T10:07:46.620Z,15.70
2023-03-17T10:10:26.865Z,15.60
2023-03-17T10:12:53.443Z,15.80
2023-03-17T10:15:20.090Z,15.60
2023-03-17T10:17:47.305Z,16.10
2023-03-17T10:20:28.490Z,16.60
2023-03-17T10:22:58.087Z,16.60
2023-03-17T10:25:34.452Z,17.60
2023-03-17T10:28:12.243Z,18.10
2023-03-17T10:30:39.707Z,18.60
2023-03-17T10:33:09.410Z,18.70
2023-03-17T10:35:39.379Z,18.70
2023-03-17T10:38:14.884Z,18.80
2023-03-17T10:40:45.913Z,18.20
2023-03-17T10:43:16.887Z,17.40
2023-03-17T10:45:56.125Z,17.30
2023-03-17T10:48:25.314Z,17.50
2023-03-17T10:50:54.308Z,17.80
2023-03-17T10:53:28.136Z,17.50
2023-03-17T10:56:06.756Z,17.10
2023-03-17T10:58:33.357Z,17.10
2023-03-17T11:01:03.803Z,17.40
2023-03-17T11:06:06.150Z,17.60
2023-03-17T11:08:36.605Z,17.60
2023-03-17T11:11:05.599Z,17.50
2023-03-17T11:13:32.859Z,17.30
2023-03-17T11:16:07.977Z,17.30
2023-03-17T11:18:35.870Z,16.80
2023-03-17T11:21:06.075Z,16.80
2023-03-17T11:23:32.777Z,17.00
2023-03-17T11:26:14.842Z,16.60
2023-03-17T11:28:44.535Z,16.20
2023-03-17T11:31:17.361Z,15.90
2023-03-17T11:33:50.824Z,16.00
2023-03-17T11:36:33.514Z,15.80
2023-03-17T11:39:00.150Z,15.80
2023-03-17T11:41:27.113Z,15.40
2023-03-17T11:44:08.937Z,15.70
2023-03-17T11:46:37.972Z,16.00
2023-03-17T11:49:04.557Z,16.50
2023-03-17T11:51:37.572Z,16.40
2023-03-17T11:54:24.740Z,16.40
2023-03-17T11:56:52.979Z,16.40
2023-03-17T11:59:31.470Z,16.20
2023-03-17T12:02:16.388Z,16.00
2023-03-17T12:04:55.547Z,16.10
2023-03-17T12:07:27.613Z,16.40
2023-03-17T12:09:58.980Z,16.50
2023-03-17T12:12:29.299Z,16.60
2023-03-17T12:14:58.159Z,16.20
2023-03-17T12:17:39.283Z,15.90
2023-03-17T12:20:24.598Z,16.20
2023-03-17T12:23:09.953Z,15.90
2023-03-17T12:25:49.744Z,15.70
2023-03-17T12:28:22.845Z,15.80
2023-03-17T12:30:52.144Z,16.10
2023-03-17T12:33:24.719Z,16.20
2023-03-17T12:35:52.061Z,16.20
2023-03-17T12:38:20.821Z,16.40
2023-03-17T12:40:51.227Z,16.40
2023-03-17T12:43:39.551Z,16.20
2023-03-17T12:46:16.085Z,16.40
2023-03-17T12:48:42.711Z,16.50
2023-03-17T12:51:12.338Z,16.80
2023-03-17T12:53:51.653Z,16.90
2023-03-17T12:56:34.314Z,16.90
2023-03-17T12:59:05.353Z,16.90
2023-03-17T13:01:34.975Z,17.20
2023-03-17T13:04:15.397Z,17.10
2023-03-17T13:06:45.024Z,17.10
2023-03-17T13:09:35.776Z,17.20
2023-03-17T13:12:04.462Z,17.20
2023-03-17T13:14:40.221Z,17.70
2023-03-17T13:17:16.588Z,17.80
2023-03-17T13:19:50.203Z,17.90
2023-03-17T13:22:19.683Z,17.70
2023-03-17T13:24:48.108Z,17.10
2023-03-17T13:27:34.710Z,16.70
2023-03-17T13:30:22.109Z,16.60
2023-03-17T13:32:55.088Z,16.40
2023-03-17T13:35:25.524Z,16.70
2023-03-17T13:38:07.495Z,16.90
2023-03-17T13:40:40.156Z,17.10
2023-03-17T13:43:20.907Z,17.20
2023-03-17T13:45:48.728Z,17.00
2023-03-17T13:48:24.278Z,16.90
2023-03-17T13:50:57.972Z,16.90
2023-03-17T13:53:27.695Z,17.00
2023-03-17T13:56:14.473Z,17.10
2023-03-17T13:58:50.067Z,17.40
2023-03-17T14:01:17.335Z,17.30
2023-03-17T14:03:49.953Z,17.00
2023-03-17T14:06:18.750Z,17.00
2023-03-17T14:08:53.595Z,17.10
2023-03-17T14:11:38.846Z,17.10
2023-03-17T14:14:26.035Z,16.70
2023-03-17T14:16:58.450Z,16.40
2023-03-17T14:19:27.504Z,16.50
2023-03-17T14:21:55.262Z,16.50
2023-03-17T14:24:25.962Z,16.40
2023-03-17T14:26:52.770Z,16.30
2023-03-17T14:29:21.442Z,16.30
2023-03-17T14:31:58.965Z,16.20
2023-03-17T14:34:31.795Z,16.10
2023-03-17T14:37:03.324Z,16.00
2023-03-17T14:39:30.176Z,15.90
2023-03-17T14:42:02.966Z,15.80
2023-03-17T14:44:39.783Z,15.80
2023-03-17T14:47:12.679Z,15.90
2023-03-17T14:49:45.722Z,15.80
2023-03-17T14:52:19.789Z,15.70
2023-03-17T14:54:49.188Z,15.60
2023-03-17T14:57:23.717Z,15.50
2023-03-17T15:00:16.666Z,15.40
2023-03-17T15:02:53.987Z,15.40
2023-03-17T15:05:37.068Z,15.50
2023-03-17T15:08:23.611Z,15.50
2023-03-17T15:10:50.435Z,15.40
2023-03-17T15:13:22.404Z,15.30
2023-03-17T15:15:49.059Z,15.30
2023-03-17T15:18:15.881Z,15.20
2023-03-17T15:20:43.956Z,15.20
2023-03-17T15:23:18.281Z,15.20
2023-03-17T15:25:46.265Z,15.20
2023-03-17T15:28:14.118Z,15.30
2023-03-17T15:30:48.482Z,15.30
2023-03-17T15:33:21.856Z,15.20
2023-03-17T15:35:49.075Z,15.20
2023-03-17T15:38:16.227Z,15.10
2023-03-17T15:40:42.862Z,15.10
2023-03-17T15:43:13.947Z,15.10
2023-03-17T15:45:41.827Z,15.00
2023-03-17T15:48:27.744Z,15.00
2023-03-17T15:50:56.752Z,14.90
2023-03-17T15:53:23.309Z,14.80
2023-03-17T15:55:50.121Z,14.80
2023-03-17T15:58:16.721Z,14.70
2023-03-17T16:00:44.309Z,14.70
2023-03-17T16:03:31.274Z,14.60
2023-03-17T16:05:58.474Z,14.50
2023-03-17T16:08:25.136Z,14.50
2023-03-17T16:10:52.289Z,14.40
2023-03-17T16:13:19.255Z,14.50
2023-03-17T16:15:59.943Z,14.40
2023-03-17T16:18:34.612Z,14.40
2023-03-17T16:21:05.563Z,14.10
2023-03-17T16:23:32.708Z,13.90
2023-03-17T16:26:13.880Z,13.80
2023-03-17T16:28:42.364Z,13.80
2023-03-17T16:31:16.052Z,13.90
2023-03-17T16:33:42.823Z,14.00
2023-03-17T16:36:13.526Z,14.10
2023-03-17T16:38:40.160Z,14.10
2023-03-17T16:41:10.334Z,14.20
2023-03-17T16:43:37.875Z,14.20
2023-03-17T16:46:06.080Z,14.20
2023-03-17T16:48:33.144Z,14.20
2023-03-17T16:50:59.900Z,14.20
2023-03-17T16:53:26.561Z,14.20
2023-03-17T16:55:56.429Z,14.20
2023-03-17T17:01:02.678Z,14.20
2023-03-17T17:03:29.804Z,14.20
2023-03-17T17:05:58.686Z,14.20
2023-03-17T17:08:25.363Z,14.10
2023-03-17T17:10:56.799Z,14.10
2023-03-17T17:13:24.657Z,14.10
2023-03-17T17:15:51.526Z,14.10
2023-03-17T17:18:20.472Z,14.10
2023-03-17T17:20:47.955Z,14.10
2023-03-17T17:23:18.451Z,14.10
2023-03-17T17:25:48.182Z,14.10
2023-03-17T17:28:16.005Z,14.10
2023-03-17T17:30:45.034Z,14.10
2023-03-17T17:33:12.074Z,14.10
2023-03-17T17:35:38.793Z,14.10
2023-03-17T17:38:10.124Z,14.10
2023-03-17T17:40:41.863Z,14.00
2023-03-17T17:43:09.298Z,14.00
2023-03-17T17:45:39.523Z,14.00
2023-03-17T17:48:06.451Z,14.00
2023-03-17T17:50:36.827Z,14.00
2023-03-17T17:53:11.633Z,14.00
2023-03-17T17:55:39.842Z,13.90
2023-03-17T17:58:06.827Z,13.90
2023-03-17T18:00:34.068Z,13.90
2023-03-17T18:03:01.107Z,13.90
2023-03-17T18:05:27.969Z,13.90
2023-03-17T18:07:54.612Z,13.90
2023-03-17T18:10:27.093Z,13.80
2023-03-17T18:12:54.102Z,13.70
2023-03-17T18:15:21.995Z,13.60
2023-03-17T18:17:49.022Z,13.70
2023-03-17T18:20:17.009Z,13.60
2023-03-17T18:22:44.032Z,13.60
2023-03-17T18:25:11.483Z,13.50
2023-03-17T18:27:38.426Z,13.40
2023-03-17T18:30:07.354Z,13.20
2023-03-17T18:32:37.636Z,13.10
2023-03-17T18:35:06.838Z,13.00
2023-03-17T18:37:33.856Z,13.10
2023-03-17T18:40:13.351Z,13.10
2023-03-17T18:42:41.660Z,13.10
2023-03-17T18:45:09.821Z,13.00
2023-03-17T18:47:39.114Z,12.90
2023-03-17T18:50:07.060Z,12.70
2023-03-17T18:52:34.322Z,12.50
2023-03-17T18:55:01.063Z,12.30
2023-03-17T18:57:28.190Z,12.20
2023-03-17T18:59:55.436Z,12.10
2023-03-17T19:02:22.176Z,12.10
2023-03-17T19:04:48.951Z,12.00
2023-03-17T19:07:16.297Z,11.90
2023-03-17T19:09:42.944Z,11.80
2023-03-17T19:12:09.799Z,11.60
2023-03-17T19:14:37.252Z,11.50
2023-03-17T19:17:04.192Z,11.50
2023-03-17T19:19:31.746Z,11.50
2023-03-17T19:21:58.490Z,11.40
2023-03-17T19:24:25.529Z,11.40
2023-03-17T19:26:52.172Z,11.40
2023-03-17T19:29:18.862Z,11.40
2023-03-17T19:31:48.356Z,11.30
2023-03-17T19:34:15.441Z,11.40
2023-03-17T19:36:43.099Z,11.60
2023-03-17T19:39:10.799Z,11.60
2023-03-17T19:41:37.650Z,11.60
2023-03-17T19:44:06.820Z,11.60
2023-03-17T19:46:33.944Z,11.50
2023-03-17T19:49:00.693Z,11.50
2023-03-17T19:51:27.491Z,11.50
2023-03-17T19:53:54.914Z,11.50
2023-03-17T19:56:25.112Z,11.50
2023-03-17T19:58:51.974Z,11.50
2023-03-17T20:01:19.059Z,11.50
2023-03-17T20:03:45.856Z,11.50
2023-03-17T20:06:13.060Z,11.40
2023-03-17T20:08:40.369Z,11.40
2023-03-17T20:11:09.245Z,11.40
2023-03-17T20:13:36.332Z,11.40
2023-03-17T20:16:03.588Z,11.40
2023-03-17T20:18:30.495Z,11.40
2023-03-17T20:23:26.548Z,11.20
2023-03-17T20:25:53.462Z,11.20
2023-03-17T20:28:21.449Z,11.10
2023-03-17T20:30:48.276Z,11.10
2023-03-17T20:33:15.265Z,11.00
2023-03-17T20:35:43.143Z,11.00
2023-03-17T20:38:11.312Z,10.90
2023-03-17T20:40:38.453Z,10.80
2023-03-17T20:43:06.747Z,10.80
2023-03-17T20:45:36.840Z,10.90
2023-03-17T20:48:04.954Z,10.80
2023-03-17T20:50:34.620Z,10.90
2023-03-17T20:53:01.624Z,11.00
2023-03-17T20:55:28.313Z,11.00
2023-03-17T20:57:59.796Z,11.00
2023-03-17T21:00:28.223Z,11.00
2023-03-17T21:02:57.498Z,10.90
2023-03-17T21:05:27.642Z,10.80
2023-03-17T21:07:56.578Z,10.80
2023-03-17T21:10:23.578Z,10.70
2023-03-17T21:12:54.692Z,10.60
2023-03-17T21:15:23.467Z,10.50
2023-03-17T21:17:50.288Z,10.50
2023-03-17T21:20:17.075Z,10.50
2023-03-17T21:22:46.636Z,10.30
2023-03-17T21:25:13.684Z,10.30
2023-03-17T21:27:41.004Z,10.30
2023-03-17T21:30:12.378Z,10.30
2023-03-17T21:32:39.912Z,10.20
2023-03-17T21:35:07.878Z,10.20
2023-03-17T21:37:34.920Z,10.20
2023-03-17T21:40:01.558Z,10.20
2023-03-17T21:42:28.346Z,10.10
2023-03-17T21:44:55.159Z,10.10
2023-03-17T21:47:21.935Z,10.10
2023-03-17T21:49:48.602Z,10.10
2023-03-17T21:52:15.659Z,10.10
2023-03-17T21:54:42.454Z,10.00
2023-03-17T21:57:12.190Z,10.00
2023-03-17T21:59:39.969Z,10.00
2023-03-17T22:02:06.615Z,10.00
2023-03-17T22:04:33.337Z,10.00
2023-03-17T22:07:00.143Z,9.90
2023-03-17T22:09:26.811Z,9.90
2023-03-17T22:11:54.042Z,9.90
2023-03-17T22:14:20.914Z,9.80
2023-03-17T22:16:48.504Z,9.80
2023-03-17T22:19:15.692Z,9.80
2023-03-17T22:21:42.820Z,9.80
2023-03-17T22:24:10.044Z,9.80
2023-03-17T22:26:36.848Z,9.80
2023-03-17T22:29:03.865Z,9.80
2023-03-17T22:31:30.831Z,9.80
2023-03-17T22:33:57.999Z,9.70
2023-03-17T22:36:25.641Z,9.70
2023-03-17T22:38:52.505Z,9.70
2023-03-17T22:41:21.425Z,9.70
2023-03-17T22:43:48.041Z,9.70
2023-03-17T22:46:15.209Z,9.70
2023-03-17T22:48:41.791Z,9.80
2023-03-17T22:51:12.814Z,9.70
2023-03-17T22:53:40.480Z,9.80
2023-03-17T22:56:07.791Z,9.80
2023-03-17T22:58:34.502Z,9.90
2023-03-17T23:01:01.523Z,9.90
2023-03-17T23:03:28.516Z,9.90
2023-03-17T23:05:57.189Z,9.90
2023-03-17T23:08:24.605Z,9.90
2023-03-17T23:10:53.845Z,9.90
2023-03-17T23:13:20.954Z,9.90
2023-03-17T23:15:48.558Z,10.00
2023-03-17T23:18:16.908Z,10.00
2023-03-17T23:20:43.647Z,10.00
2023-03-17T23:23:11.525Z,10.00
2023-03-17T23:25:38.498Z,10.00
2023-03-17T23:28:06.144Z,10.00
2023-03-17T23:30:33.333Z,10.00
2023-03-17T23:33:01.161Z,10.00
2023-03-17T23:35:28.502Z,10.00
2023-03-17T23:37:55.338Z,10.10
2023-03-17T23:40:23.635Z,10.10
2023-03-17T23:42:50.591Z,10.00
2023-03-17T23:45:18.190Z,10.00
2023-03-17T23:47:45.291Z,10.00
2023-03-17T23:50:12.652Z,10.00
2023-03-17T23:52:39.311Z,10.00
2023-03-17T23:55:10.156Z,10.10
2023-03-17T23:57:37.820Z,10.10
